Time;durP1;ratioP1;P1;durP2;ratioP2;P2;SDS_P1;SDS_P2;PMS_P1;PMS_P2;Temp;Humidity;BMP_temperature;BMP_pressure;BME280_temperature;BME280_humidity;BME280_pressure;Samples;Min_cycle;Max_cycle;Signal;HPM_P1;HPM_P2
2021/10/08 00:01:19;;;;;;;1.77;1.27;;;;;;;18.66;61.19;103077.91;5087756;28;20024;-65
2021/10/08 00:03:45;;;;;;;1.20;1.17;;;;;;;18.64;61.26;103074.47;5085926;28;20029;-65
2021/10/08 00:06:10;;;;;;;1.65;1.35;;;;;;;18.65;61.29;103081.50;5089515;28;20437;-66
2021/10/08 00:08:36;;;;;;;2.85;1.33;;;;;;;18.64;61.16;103077.09;5088755;28;20381;-65
2021/10/08 00:11:01;;;;;;;2.22;1.35;;;;;;;18.60;61.20;103085.19;5092058;28;20414;-65
2021/10/08 00:13:27;;;;;;;1.45;1.35;;;;;;;18.55;61.39;103078.31;5088725;28;20033;-65
2021/10/08 00:15:52;;;;;;;1.50;1.35;;;;;;;18.56;61.26;103082.72;5091777;28;20047;-65
2021/10/08 00:18:17;;;;;;;1.27;1.17;;;;;;;18.55;61.58;103078.31;5088660;28;20069;-66
2021/10/08 00:20:43;;;;;;;2.92;1.42;;;;;;;18.56;61.10;103078.28;5090200;28;20366;-65
2021/10/08 00:23:08;;;;;;;1.60;1.13;;;;;;;18.58;60.85;103067.59;5091974;28;20029;-65
2021/10/08 00:25:39;;;;;;;1.35;1.20;;;;;;;18.54;61.19;103080.13;5092893;28;20217;-65
2021/10/08 00:28:04;;;;;;;1.40;1.30;;;;;;;18.52;61.16;103081.97;5088737;28;20028;-66
2021/10/08 00:30:29;;;;;;;1.20;1.10;;;;;;;18.51;61.04;103084.69;5083608;28;20046;-66
2021/10/08 00:32:55;;;;;;;1.77;1.20;;;;;;;18.50;61.19;103082.94;5070225;28;20082;-65
2021/10/08 00:35:20;;;;;;;2.90;1.38;;;;;;;18.50;61.02;103085.59;5071399;28;20135;-65
2021/10/08 00:37:46;;;;;;;1.63;1.33;;;;;;;18.45;61.32;103079.63;5072631;28;20044;-66
2021/10/08 00:40:11;;;;;;;1.48;1.38;;;;;;;18.45;61.45;103088.44;5068984;28;20056;-66
2021/10/08 00:42:37;;;;;;;1.95;1.25;;;;;;;18.47;61.25;103091.91;5071298;28;20217;-65
2021/10/08 00:45:02;;;;;;;1.48;1.25;;;;;;;18.48;61.17;103092.75;5064460;28;20037;-66
2021/10/08 00:47:28;;;;;;;3.08;1.60;;;;;;;18.45;60.92;103088.44;5065325;28;20037;-65
2021/10/08 00:49:54;;;;;;;1.38;1.27;;;;;;;18.44;61.02;103091.16;5066962;28;20032;-65
2021/10/08 00:52:19;;;;;;;1.50;1.40;;;;;;;18.41;61.13;103092.16;5082947;28;20067;-65
2021/10/08 00:54:45;;;;;;;1.30;1.15;;;;;;;18.46;60.88;103099.91;5083617;28;20043;-66
2021/10/08 00:57:10;;;;;;;1.52;1.17;;;;;;;18.41;61.09;103097.44;5078929;28;20052;-67
2021/10/08 00:59:36;;;;;;;3.10;1.52;;;;;;;18.35;61.06;103095.88;5061843;28;20033;-66
2021/10/08 01:02:02;;;;;;;1.50;1.40;;;;;;;18.42;60.97;103092.06;5078066;28;20116;-66
2021/10/08 01:04:27;;;;;;;1.25;1.10;;;;;;;18.40;60.89;103090.41;5083553;28;20067;-66
2021/10/08 01:06:53;;;;;;;1.30;1.20;;;;;;;18.40;60.90;103093.91;5093671;28;20204;-66
2021/10/08 01:09:19;;;;;;;1.35;1.25;;;;;;;18.39;60.67;103092.19;5072333;28;20296;-65
2021/10/08 01:11:44;;;;;;;1.40;1.30;;;;;;;18.34;61.10;103088.84;5063654;28;20044;-65
2021/10/08 01:14:10;;;;;;;1.25;1.15;;;;;;;18.34;61.25;103094.16;5064501;28;20228;-66
2021/10/08 01:16:35;;;;;;;1.40;1.30;;;;;;;18.32;60.95;103097.78;5064412;28;20353;-66
2021/10/08 01:19:01;;;;;;;1.15;1.10;;;;;;;18.29;61.02;103100.56;5076441;28;20042;-65
2021/10/08 01:21:26;;;;;;;1.50;1.40;;;;;;;18.31;61.23;103096.06;5076776;28;20047;-65
2021/10/08 01:23:52;;;;;;;1.50;1.40;;;;;;;18.29;60.75;103096.09;5064341;28;20033;-66
2021/10/08 01:26:17;;;;;;;1.30;1.20;;;;;;;18.30;60.78;103097.84;5067468;28;20454;-66
2021/10/08 01:28:42;;;;;;;1.35;1.25;;;;;;;18.30;60.97;103094.31;5070190;28;20147;-66
2021/10/08 01:31:08;;;;;;;1.48;1.38;;;;;;;18.29;60.83;103106.72;5064829;28;20336;-65
2021/10/08 01:33:33;;;;;;;1.40;1.30;;;;;;;18.28;60.74;103097.06;5072717;28;20062;-65
2021/10/08 01:35:59;;;;;;;1.60;1.50;;;;;;;18.30;60.89;103099.63;5064921;28;20040;-65
2021/10/08 01:38:24;;;;;;;1.45;1.33;;;;;;;18.28;60.84;103101.47;5073788;28;20078;-65
2021/10/08 01:40:50;;;;;;;1.23;1.23;;;;;;;18.25;60.94;103097.16;5083177;28;20060;-66
2021/10/08 01:43:15;;;;;;;2.60;1.42;;;;;;;18.23;60.80;103096.34;5072651;28;20378;-65
2021/10/08 01:45:40;;;;;;;1.20;1.10;;;;;;;18.22;60.97;103107.88;5079714;28;20410;-65
2021/10/08 01:48:06;;;;;;;1.67;1.20;;;;;;;18.23;60.57;103106.97;5078609;28;20090;-66
2021/10/08 01:50:31;;;;;;;1.33;1.23;;;;;;;18.25;60.57;103102.47;5062955;28;20036;-65
2021/10/08 01:52:58;;;;;;;1.77;1.10;;;;;;;18.19;60.79;103110.63;5077451;28;20042;-65
2021/10/08 01:55:24;;;;;;;1.40;1.30;;;;;;;18.17;60.81;103108.06;5069067;28;20112;-65
2021/10/08 01:57:49;;;;;;;1.60;1.50;;;;;;;18.20;60.61;103110.56;5067314;28;20094;-65
2021/10/08 02:00:14;;;;;;;1.75;1.27;;;;;;;18.22;60.62;103106.06;5074119;28;20038;-65
2021/10/08 02:02:40;;;;;;;1.30;1.20;;;;;;;18.19;60.69;103106.22;5070482;28;20051;-65
2021/10/08 02:05:06;;;;;;;1.40;1.30;;;;;;;18.13;60.71;103110.84;5065350;28;20046;-65
2021/10/08 02:07:31;;;;;;;1.48;1.25;;;;;;;18.17;60.66;103108.06;5086388;28;20062;-66
2021/10/08 02:09:56;;;;;;;1.85;1.35;;;;;;;18.11;60.55;103105.59;5102381;28;20098;-65
2021/10/08 02:12:22;;;;;;;1.42;1.33;;;;;;;18.11;60.55;103102.09;5074342;28;20043;-66
2021/10/08 02:14:47;;;;;;;1.50;1.40;;;;;;;18.10;60.55;103109.19;5076169;28;20074;-65
2021/10/08 02:17:13;;;;;;;1.48;1.38;;;;;;;18.11;60.50;103110.91;5080447;28;20038;-65
2021/10/08 02:19:38;;;;;;;2.08;1.40;;;;;;;18.14;60.57;103104.66;5051272;28;20059;-66
2021/10/08 02:22:04;;;;;;;1.40;1.15;;;;;;;18.09;60.57;103104.81;5076250;28;20323;-66
2021/10/08 02:24:29;;;;;;;1.50;1.33;;;;;;;18.07;60.78;103111.94;5082240;28;20258;-66
2021/10/08 02:26:55;;;;;;;1.40;1.20;;;;;;;18.07;60.69;103105.78;5081802;28;20048;-65
2021/10/08 02:29:20;;;;;;;1.88;1.38;;;;;;;18.01;60.75;103104.25;5080719;28;20089;-66
2021/10/08 02:31:46;;;;;;;3.05;1.10;;;;;;;18.05;60.71;103105.00;5077440;28;20047;-65
2021/10/08 02:34:11;;;;;;;1.38;1.27;;;;;;;17.99;60.72;103109.59;5051273;28;20029;-65
2021/10/08 02:36:37;;;;;;;1.20;1.20;;;;;;;18.01;60.71;103115.69;5080601;28;20048;-65
2021/10/08 02:39:02;;;;;;;1.38;1.30;;;;;;;17.99;60.63;103117.53;5064450;28;20039;-65
2021/10/08 02:41:28;;;;;;;1.63;1.50;;;;;;;17.97;60.75;103105.25;5072324;28;20044;-66
2021/10/08 02:43:53;;;;;;;1.40;1.30;;;;;;;17.96;60.77;103112.34;5070287;28;20056;-66
2021/10/08 02:46:19;;;;;;;1.35;1.20;;;;;;;17.96;60.53;103111.47;5078268;28;20457;-64
2021/10/08 02:48:45;;;;;;;1.50;1.40;;;;;;;17.95;60.69;103109.75;5080262;28;20036;-64
2021/10/08 02:51:10;;;;;;;1.25;1.15;;;;;;;17.91;60.57;103111.63;5061876;28;20044;-64
2021/10/08 02:53:36;;;;;;;1.20;1.10;;;;;;;17.93;60.61;103114.22;5061235;28;20025;-64
2021/10/08 02:56:03;;;;;;;1.30;1.20;;;;;;;17.94;60.60;103108.88;5080925;28;20052;-65
2021/10/08 02:58:29;;;;;;;1.45;1.35;;;;;;;17.91;60.67;103111.63;5045761;28;20108;-65
2021/10/08 03:00:54;;;;;;;1.40;1.30;;;;;;;17.92;60.39;103108.06;5072458;28;20037;-64
2021/10/08 03:03:20;;;;;;;1.05;1.05;;;;;;;17.89;60.63;103117.91;5066797;28;20039;-64
2021/10/08 03:05:45;;;;;;;1.30;1.20;;;;;;;17.89;60.86;103117.91;5079908;28;20036;-64
2021/10/08 03:08:11;;;;;;;1.00;1.00;;;;;;;17.86;60.81;103112.72;5077475;28;20267;-64
2021/10/08 03:10:37;;;;;;;1.35;1.25;;;;;;;17.89;60.62;103118.78;5079866;28;20106;-64
2021/10/08 03:13:02;;;;;;;1.20;1.20;;;;;;;17.89;60.51;103118.78;5047048;28;20071;-64
2021/10/08 03:15:28;;;;;;;1.20;1.10;;;;;;;17.90;60.46;103114.34;5060463;28;20044;-65
2021/10/08 03:17:53;;;;;;;2.13;1.50;;;;;;;17.84;60.61;103121.56;5061972;28;20051;-64
2021/10/08 03:20:19;;;;;;;1.45;1.35;;;;;;;17.80;60.57;103122.59;5079420;28;20048;-65
2021/10/08 03:22:44;;;;;;;1.55;1.45;;;;;;;17.84;60.56;103126.00;5068798;28;20329;-64
2021/10/08 03:25:10;;;;;;;1.23;1.13;;;;;;;17.81;60.50;103120.81;5061623;28;20045;-64
2021/10/08 03:27:36;;;;;;;2.35;1.10;;;;;;;17.80;60.49;103119.06;5061768;28;20214;-64
2021/10/08 03:30:03;;;;;;;1.40;1.30;;;;;;;17.81;60.34;103123.47;5046992;28;20051;-64
2021/10/08 03:32:28;;;;;;;1.20;1.10;;;;;;;17.82;60.29;103114.56;5069591;28;20032;-64
2021/10/08 03:34:54;;;;;;;1.30;1.20;;;;;;;17.80;60.49;103122.59;5073074;28;20391;-64
2021/10/08 03:37:23;;;;;;;1.02;1.02;;;;;;;17.76;60.32;103123.63;5076710;28;20099;-64
2021/10/08 03:39:49;;;;;;;1.10;1.05;;;;;;;17.77;60.53;103125.34;5079487;28;20044;-64
2021/10/08 03:42:17;;;;;;;1.20;1.20;;;;;;;17.79;60.28;103126.16;5074968;28;20048;-64
2021/10/08 03:44:46;;;;;;;1.30;1.20;;;;;;;17.82;60.27;103126.03;5071844;28;20055;-65
2021/10/08 03:47:15;;;;;;;1.38;1.30;;;;;;;17.78;60.31;103123.56;5069242;28;20035;-64
2021/10/08 03:49:41;;;;;;;1.05;1.05;;;;;;;17.75;60.30;103126.31;5068514;28;20037;-64
2021/10/08 03:52:07;;;;;;;1.08;1.08;;;;;;;17.72;60.30;103124.66;5061200;28;20033;-64
2021/10/08 03:54:32;;;;;;;1.20;1.15;;;;;;;17.75;60.17;103119.22;5052269;28;20040;-64
2021/10/08 03:56:57;;;;;;;1.00;1.00;;;;;;;17.74;60.36;103114.84;5074326;28;20316;-64
2021/10/08 03:59:23;;;;;;;1.13;1.08;;;;;;;17.72;60.21;103122.00;5080158;28;20044;-64
2021/10/08 04:01:48;;;;;;;1.05;1.05;;;;;;;17.72;60.16;103123.75;5076354;28;20327;-64
2021/10/08 04:04:13;;;;;;;0.93;0.93;;;;;;;17.71;60.30;103116.75;5076637;28;20302;-64
2021/10/08 04:06:39;;;;;;;1.13;1.13;;;;;;;17.67;60.31;103115.97;5071261;28;20100;-64
2021/10/08 04:09:05;;;;;;;1.20;1.13;;;;;;;17.65;60.18;103112.53;5061962;28;20098;-64
2021/10/08 04:11:31;;;;;;;1.13;1.13;;;;;;;17.63;60.18;103117.88;5060293;28;20040;-64
2021/10/08 04:13:56;;;;;;;1.00;1.00;;;;;;;17.60;60.59;103117.97;5043204;28;20084;-63
2021/10/08 04:16:22;;;;;;;1.30;1.20;;;;;;;17.57;60.32;103112.81;5053006;28;20559;-63
2021/10/08 04:18:47;;;;;;;1.10;1.10;;;;;;;17.55;60.21;103121.69;5069588;28;20033;-63
2021/10/08 04:21:13;;;;;;;1.58;1.48;;;;;;;17.58;60.38;103124.25;5061353;28;20092;-64
2021/10/08 04:23:38;;;;;;;1.10;1.10;;;;;;;17.55;60.41;103127.84;5070676;28;20264;-64
2021/10/08 04:26:04;;;;;;;1.05;1.05;;;;;;;17.56;60.43;103129.59;5080697;28;20048;-63
2021/10/08 04:28:29;;;;;;;0.90;0.90;;;;;;;17.59;60.23;103126.84;5060768;28;20090;-63
2021/10/08 04:30:55;;;;;;;1.17;1.08;;;;;;;17.58;60.09;103124.25;5078122;28;20146;-64
2021/10/08 04:33:25;;;;;;;1.33;1.23;;;;;;;17.53;60.17;103126.19;5060108;28;20048;-63
2021/10/08 04:35:50;;;;;;;0.98;0.98;;;;;;;17.51;60.22;103120.94;5058961;28;20017;-64
2021/10/08 04:38:16;;;;;;;1.05;1.05;;;;;;;17.52;60.15;103121.78;5077020;28;20358;-64
2021/10/08 04:40:41;;;;;;;0.95;0.95;;;;;;;17.49;60.25;103124.56;5064805;28;20059;-64
2021/10/08 04:43:07;;;;;;;1.20;1.10;;;;;;;17.51;60.16;103128.88;5067365;28;20044;-64
2021/10/08 04:45:32;;;;;;;1.20;1.10;;;;;;;17.51;60.35;103133.31;5075015;28;20375;-63
2021/10/08 04:47:58;;;;;;;0.93;0.93;;;;;;;17.50;60.12;103134.22;5065801;28;20047;-64
2021/10/08 04:50:23;;;;;;;0.93;0.88;;;;;;;17.51;60.06;103125.38;5082830;28;20042;-64
2021/10/08 04:52:49;;;;;;;1.20;1.15;;;;;;;17.47;60.25;103132.56;5075462;28;20083;-64
2021/10/08 04:55:14;;;;;;;1.23;1.23;;;;;;;17.47;60.14;103129.91;5083447;28;20032;-64
2021/10/08 04:57:40;;;;;;;1.10;1.10;;;;;;;17.44;60.23;103130.91;5054428;28;20147;-64
2021/10/08 05:00:06;;;;;;;1.10;1.08;;;;;;;17.45;60.27;103126.44;5080612;28;20342;-65
2021/10/08 05:02:32;;;;;;;1.00;1.00;;;;;;;17.43;60.20;103126.50;5081199;28;20335;-64
2021/10/08 05:04:57;;;;;;;1.05;1.05;;;;;;;17.42;60.44;103132.69;5082013;28;20045;-64
2021/10/08 05:07:23;;;;;;;0.90;0.90;;;;;;;17.43;60.01;103138.88;5082454;28;20040;-64
2021/10/08 05:09:49;;;;;;;0.88;0.88;;;;;;;17.43;60.23;103131.78;5070069;28;20094;-64
2021/10/08 05:12:14;;;;;;;1.05;1.05;;;;;;;17.42;60.01;103143.28;5046134;28;20111;-65
2021/10/08 05:14:40;;;;;;;1.17;1.08;;;;;;;17.40;60.21;103137.19;5075974;28;20040;-64
2021/10/08 05:17:05;;;;;;;0.80;0.80;;;;;;;17.42;60.01;103134.50;5077376;28;20048;-64
2021/10/08 05:19:31;;;;;;;1.00;1.00;;;;;;;17.39;59.95;103142.53;5073582;28;20036;-65
2021/10/08 05:21:56;;;;;;;0.90;0.90;;;;;;;17.37;60.20;103147.00;5068824;28;20051;-63
2021/10/08 05:24:22;;;;;;;1.33;1.00;;;;;;;17.41;59.81;103148.66;5065830;28;20048;-64
2021/10/08 05:26:47;;;;;;;1.05;1.05;;;;;;;17.35;60.10;103141.75;5081586;28;20085;-65
2021/10/08 05:29:13;;;;;;;1.05;1.00;;;;;;;17.34;60.01;103142.69;5064827;28;20028;-64
2021/10/08 05:31:38;;;;;;;0.98;0.98;;;;;;;17.32;60.18;103141.00;5074968;28;20045;-64
2021/10/08 05:34:04;;;;;;;1.00;1.00;;;;;;;17.36;59.95;103145.28;5078982;28;20078;-64
2021/10/08 05:36:29;;;;;;;1.33;1.08;;;;;;;17.33;59.92;103151.53;5070752;28;20051;-64
2021/10/08 05:38:55;;;;;;;1.10;1.10;;;;;;;17.31;60.21;103150.72;5079388;28;20028;-64
2021/10/08 05:41:20;;;;;;;1.00;1.00;;;;;;;17.32;59.81;103148.94;5071753;28;20119;-64
2021/10/08 05:43:46;;;;;;;1.00;1.00;;;;;;;17.30;59.99;103149.03;5078645;28;20029;-64
2021/10/08 05:46:11;;;;;;;1.00;1.00;;;;;;;17.29;60.01;103152.56;5074401;28;20029;-64
2021/10/08 05:48:37;;;;;;;1.00;1.00;;;;;;;17.26;60.23;103152.66;5072454;28;20071;-63
2021/10/08 05:51:02;;;;;;;1.00;1.00;;;;;;;17.23;60.06;103153.63;5065179;28;20044;-64
2021/10/08 05:53:27;;;;;;;1.00;1.00;;;;;;;17.30;59.67;103150.78;5074936;28;20024;-63
2021/10/08 05:55:53;;;;;;;0.85;0.85;;;;;;;17.31;59.95;103155.16;5070236;28;20235;-64
2021/10/08 05:58:18;;;;;;;0.93;0.93;;;;;;;17.32;59.66;103159.53;5079377;28;20040;-64
2021/10/08 06:00:44;;;;;;;2.47;1.15;;;;;;;17.37;60.05;103154.97;5078270;28;20037;-66
2021/10/08 06:03:09;;;;;;;3.97;1.00;;;;;;;17.32;60.41;103159.53;5064053;28;20036;-65
2021/10/08 06:05:36;;;;;;;1.00;1.00;;;;;;;17.29;60.04;103162.31;5080902;28;20050;-66
2021/10/08 06:08:02;;;;;;;0.95;0.95;;;;;;;17.23;60.50;103160.72;5082453;28;20032;-66
2021/10/08 06:10:27;;;;;;;2.35;1.10;;;;;;;17.26;60.69;103160.59;5075695;28;20044;-67
2021/10/08 06:12:53;;;;;;;1.80;1.27;;;;;;;17.29;60.59;103162.31;5077690;28;20036;-66
2021/10/08 06:15:18;;;;;;;1.50;1.40;;;;;;;17.27;60.51;103162.34;5080268;28;20043;-66
2021/10/08 06:17:45;;;;;;;3.97;1.45;;;;;;;17.27;60.32;103163.19;5077462;28;20036;-66
2021/10/08 06:20:10;;;;;;;2.50;1.30;;;;;;;17.28;60.56;103156.13;5058984;28;20250;-66
2021/10/08 06:22:36;;;;;;;1.90;1.20;;;;;;;17.28;60.31;103166.72;5041664;28;20078;-66
2021/10/08 06:25:03;;;;;;;1.42;1.30;;;;;;;17.27;60.53;103173.78;5075490;28;20041;-66
2021/10/08 06:27:30;;;;;;;1.40;1.30;;;;;;;17.27;60.64;103170.28;5068411;28;20064;-66
2021/10/08 06:29:55;;;;;;;1.30;1.20;;;;;;;17.29;60.60;103180.84;5074430;28;20071;-66
2021/10/08 06:32:20;;;;;;;3.10;1.65;;;;;;;17.28;60.68;103179.94;5073483;28;20044;-66
2021/10/08 06:34:46;;;;;;;3.55;1.60;;;;;;;17.29;60.46;103181.69;5079309;28;20029;-66
2021/10/08 06:37:11;;;;;;;1.60;1.50;;;;;;;17.31;60.36;103182.50;5079160;28;20081;-65
2021/10/08 06:39:36;;;;;;;2.15;1.35;;;;;;;17.34;60.76;103177.13;5076722;28;20032;-65
2021/10/08 06:42:02;;;;;;;3.78;1.55;;;;;;;17.34;60.42;103186.88;5078815;28;20036;-65
2021/10/08 06:44:27;;;;;;;2.78;1.75;;;;;;;17.35;60.74;103183.28;5079274;28;20052;-65
2021/10/08 06:46:53;;;;;;;1.45;1.35;;;;;;;17.34;60.77;103182.41;5078807;28;20041;-66
2021/10/08 06:49:18;;;;;;;5.15;1.52;;;;;;;17.37;60.57;103181.44;5079664;28;20240;-65
2021/10/08 06:51:44;;;;;;;2.60;1.40;;;;;;;17.34;61.15;103179.78;5071785;28;20107;-66
2021/10/08 06:54:09;;;;;;;3.00;1.42;;;;;;;17.36;60.91;103187.69;5073814;28;20032;-65
2021/10/08 06:56:34;;;;;;;4.85;1.30;;;;;;;17.39;60.39;103198.16;5087385;28;20090;-65
2021/10/08 06:59:00;;;;;;;2.03;1.83;;;;;;;17.39;60.44;103195.50;5091623;28;20097;-65
2021/10/08 07:01:25;;;;;;;1.30;1.17;;;;;;;17.41;60.53;103202.50;5077319;28;20036;-65
2021/10/08 07:03:51;;;;;;;11.20;2.15;;;;;;;17.42;60.76;103208.66;5079151;28;20097;-65
2021/10/08 07:06:16;;;;;;;8.98;3.10;;;;;;;17.41;61.63;103204.28;5077199;28;20047;-65
2021/10/08 07:08:42;;;;;;;12.70;2.90;;;;;;;17.40;61.56;103211.34;5076209;28;20048;-65
2021/10/08 07:11:07;;;;;;;14.32;3.10;;;;;;;17.42;61.50;103206.88;5078606;28;20059;-65
2021/10/08 07:13:32;;;;;;;9.95;2.90;;;;;;;17.44;61.85;103207.72;5078066;28;20059;-66
2021/10/08 07:15:59;;;;;;;12.00;3.42;;;;;;;17.46;61.70;103213.81;5077715;28;20065;-66
2021/10/08 07:18:33;;;;;;;11.63;2.97;;;;;;;17.44;61.82;103214.75;5073724;28;20074;-65
2021/10/08 07:20:58;;;;;;;8.32;3.00;;;;;;;17.48;62.17;103218.19;5075927;28;20048;-66
2021/10/08 07:23:24;;;;;;;6.32;3.08;;;;;;;17.59;62.45;103213.41;5071169;28;20033;-65
2021/10/08 07:25:49;;;;;;;10.98;4.03;;;;;;;17.74;62.75;103220.00;5081947;28;20059;-65
2021/10/08 07:28:17;;;;;;;18.15;2.97;;;;;;;17.83;62.80;103217.91;5050059;28;20227;-65
2021/10/08 07:30:42;;;;;;;12.05;2.45;;;;;;;17.95;62.08;103224.59;5066215;28;20228;-66
2021/10/08 07:33:07;;;;;;;12.68;2.70;;;;;;;18.03;61.74;103219.91;5064420;28;20039;-66
2021/10/08 07:35:33;;;;;;;12.27;2.72;;;;;;;18.10;62.12;103223.22;5075789;28;20039;-65
2021/10/08 07:37:58;;;;;;;14.38;2.75;;;;;;;18.21;61.94;103228.16;5075257;28;20036;-66
2021/10/08 07:40:23;;;;;;;16.92;3.20;;;;;;;18.34;61.78;103231.22;5080893;28;20051;-66
2021/10/08 07:42:49;;;;;;;17.23;2.50;;;;;;;18.54;61.45;103222.56;5076577;28;20081;-67
2021/10/08 07:45:14;;;;;;;9.48;2.75;;;;;;;18.70;61.05;103233.44;5078741;28;20335;-66
2021/10/08 07:47:40;;;;;;;8.52;2.55;;;;;;;18.84;60.28;103231.19;5063171;28;20044;-68
2021/10/08 07:50:06;;;;;;;13.20;2.80;;;;;;;18.98;59.98;103231.53;5076350;28;20036;-66
2021/10/08 07:52:31;;;;;;;7.38;2.75;;;;;;;19.15;59.36;103230.00;5054717;28;20125;-65
2021/10/08 07:54:57;;;;;;;8.75;2.72;;;;;;;19.53;59.35;103223.16;5051533;28;20346;-65
2021/10/08 07:57:22;;;;;;;10.98;2.80;;;;;;;19.60;57.82;103229.09;5079395;28;20372;-64
2021/10/08 07:59:48;;;;;;;12.80;3.00;;;;;;;19.76;57.68;103237.34;5079130;28;20036;-65
2021/10/08 08:02:13;;;;;;;8.55;2.50;;;;;;;19.84;57.42;103234.34;5083153;28;20076;-65
2021/10/08 08:04:38;;;;;;;8.43;2.30;;;;;;;20.04;56.98;103228.19;5080405;28;20043;-65
2021/10/08 08:07:05;;;;;;;11.40;2.72;;;;;;;20.13;56.49;103230.44;5084801;28;20093;-65
2021/10/08 08:09:30;;;;;;;9.48;2.72;;;;;;;20.18;56.52;103236.44;5086168;28;20063;-65
2021/10/08 08:11:55;;;;;;;13.48;3.45;;;;;;;20.27;56.23;103235.16;5088153;28;20050;-65
2021/10/08 08:14:21;;;;;;;7.63;2.72;;;;;;;20.37;56.24;103233.81;5087326;28;20024;-65
2021/10/08 08:16:47;;;;;;;20.55;2.72;;;;;;;20.41;56.01;103229.22;5085968;28;20040;-66
2021/10/08 08:19:13;;;;;;;15.75;2.85;;;;;;;20.47;55.85;103239.59;5084854;28;20078;-65
2021/10/08 08:21:40;;;;;;;23.13;3.00;;;;;;;20.54;55.95;103235.75;5087346;28;20040;-66
2021/10/08 08:24:06;;;;;;;13.13;2.95;;;;;;;20.58;55.90;103239.13;5088987;28;20040;-66
2021/10/08 08:26:31;;;;;;;13.88;2.65;;;;;;;20.68;55.64;103245.78;5083670;28;20037;-65
2021/10/08 08:28:57;;;;;;;8.38;2.70;;;;;;;20.64;55.73;103241.53;5088717;28;20077;-65
2021/10/08 08:31:22;;;;;;;17.17;2.70;;;;;;;20.68;55.80;103243.13;5077401;28;20086;-65
2021/10/08 08:33:47;;;;;;;11.93;2.70;;;;;;;20.68;55.90;103245.78;5078049;28;20041;-65
2021/10/08 08:36:14;;;;;;;17.95;3.10;;;;;;;20.51;56.35;103239.38;5077229;28;20040;-65
2021/10/08 08:38:39;;;;;;;8.20;4.63;;;;;;;20.40;52.15;103248.78;5077867;28;20042;-66
2021/10/08 08:41:05;;;;;;;8.05;5.00;;;;;;;20.34;50.66;103247.28;5084437;28;20056;-66
2021/10/08 08:43:30;;;;;;;6.78;5.60;;;;;;;20.24;50.84;103246.78;5087152;28;20032;-65
2021/10/08 08:45:56;;;;;;;9.43;5.53;;;;;;;20.34;50.55;103244.63;5072905;28;20043;-65
2021/10/08 08:48:22;;;;;;;19.75;5.55;;;;;;;20.60;50.56;103248.75;5067209;28;20374;-65
2021/10/08 08:50:48;;;;;;;21.05;5.10;;;;;;;20.76;50.34;103246.31;5086736;28;20148;-65
2021/10/08 08:53:15;;;;;;;13.10;4.35;;;;;;;20.96;50.12;103248.03;5086802;28;20049;-65
2021/10/08 08:55:40;;;;;;;14.20;4.82;;;;;;;21.17;49.74;103254.16;5084087;28;20032;-65
2021/10/08 08:58:06;;;;;;;13.18;4.18;;;;;;;21.18;49.89;103250.56;5079019;28;20071;-66
2021/10/08 09:00:31;;;;;;;13.63;4.68;;;;;;;21.28;50.03;103250.97;5077970;28;20342;-65
2021/10/08 09:03:01;;;;;;;13.52;4.20;;;;;;;21.36;50.04;103251.47;5076825;28;20040;-65
2021/10/08 09:05:31;;;;;;;18.23;4.18;;;;;;;21.51;49.68;103249.91;5078101;28;20051;-65
2021/10/08 09:07:58;;;;;;;17.70;4.07;;;;;;;21.45;49.94;103255.53;5059905;28;20043;-66
2021/10/08 09:10:26;;;;;;;18.70;4.30;;;;;;;21.52;50.15;103240.09;5078516;28;20044;-66
2021/10/08 09:12:55;;;;;;;11.63;4.22;;;;;;;21.54;50.14;103247.09;5078901;28;20121;-66
2021/10/08 09:15:20;;;;;;;8.80;3.45;;;;;;;21.62;50.05;103244.88;5076460;28;20032;-65
2021/10/08 09:17:46;;;;;;;13.50;3.47;;;;;;;21.63;50.25;103246.63;5065448;28;20385;-65
2021/10/08 09:20:18;;;;;;;16.00;4.22;;;;;;;21.89;49.99;103248.94;5078399;28;20032;-65
2021/10/08 09:22:46;;;;;;;20.98;3.67;;;;;;;22.08;49.59;103246.19;5063127;28;20041;-66
2021/10/08 09:25:29;;;;;;;12.88;3.45;;;;;;;21.90;50.22;103243.50;5073528;28;20030;-65
2021/10/08 09:28:01;;;;;;;14.88;3.92;;;;;;;21.87;50.15;103248.16;5075138;28;20074;-65
2021/10/08 09:30:37;;;;;;;18.40;3.92;;;;;;;22.14;49.65;103243.19;5079967;28;20103;-66
2021/10/08 09:33:04;;;;;;;14.48;3.88;;;;;;;22.43;49.09;103241.72;5079937;28;20070;-65
2021/10/08 09:35:30;;;;;;;8.73;3.97;;;;;;;22.37;48.93;103247.34;5062009;28;20213;-65
2021/10/08 09:37:57;;;;;;;16.42;4.22;;;;;;;22.29;49.47;103247.75;5076394;28;20041;-66
2021/10/08 09:40:36;;;;;;;12.85;3.60;;;;;;;22.34;49.49;103243.06;5076990;28;20052;-66
2021/10/08 09:43:07;;;;;;;18.63;3.78;;;;;;;22.49;49.19;103241.38;5070158;28;20567;-67
2021/10/08 09:45:40;;;;;;;18.10;4.53;;;;;;;22.90;48.80;103243.63;5077879;28;20040;-66
2021/10/08 09:48:06;;;;;;;15.73;4.05;;;;;;;22.97;48.21;103244.13;5070280;28;20063;-65
2021/10/08 09:50:31;;;;;;;17.27;6.30;;;;;;;22.79;46.74;103241.53;5077286;28;20348;-67
2021/10/08 09:53:11;;;;;;;16.17;8.82;;;;;;;22.18;45.71;103250.97;5063304;28;20059;-68
2021/10/08 09:55:37;;;;;;;24.90;10.68;;;;;;;21.69;46.68;103248.13;5058160;28;20294;-67
2021/10/08 09:58:02;;;;;;;24.20;11.50;;;;;;;21.49;46.95;103245.59;5079850;28;20059;-67
2021/10/08 10:00:47;;;;;;;21.15;10.98;;;;;;;21.39;46.92;103242.47;5072966;28;20041;-68
2021/10/08 10:03:14;;;;;;;19.85;11.27;;;;;;;21.24;47.37;103246.72;5078261;28;20047;-66
2021/10/08 10:05:40;;;;;;;17.83;11.48;;;;;;;20.94;47.82;103246.38;5057896;28;20043;-69
2021/10/08 10:08:05;;;;;;;23.05;13.52;;;;;;;20.63;48.38;103248.66;5059285;28;20037;-69
2021/10/08 10:10:31;;;;;;;21.63;13.35;;;;;;;20.64;48.43;103246.84;5067775;28;20037;-69
2021/10/08 10:12:58;;;;;;;19.80;13.55;;;;;;;20.44;48.90;103245.06;5082552;28;20075;-69
2021/10/08 10:15:23;;;;;;;21.65;13.90;;;;;;;20.35;49.00;103253.44;5061554;28;20115;-69
2021/10/08 10:17:49;;;;;;;26.38;14.00;;;;;;;20.23;49.43;103249.50;5080451;28;20034;-69
2021/10/08 10:20:14;;;;;;;22.33;14.15;;;;;;;20.31;49.23;103252.72;5056589;28;20049;-70
2021/10/08 10:22:40;;;;;;;20.25;14.68;;;;;;;20.27;49.39;103244.00;5080632;28;20036;-69
2021/10/08 10:25:06;;;;;;;24.27;14.80;;;;;;;20.23;49.32;103245.09;5058436;28;20048;-70
2021/10/08 10:27:33;;;;;;;21.70;14.63;;;;;;;20.34;49.58;103252.59;5053597;28;20044;-66
2021/10/08 10:29:58;;;;;;;39.55;14.68;;;;;;;20.71;49.42;103251.81;5071052;28;20058;-67
2021/10/08 10:32:24;;;;;;;23.83;12.95;;;;;;;20.98;48.93;103240.84;5045695;28;20049;-67
2021/10/08 10:34:49;;;;;;;32.72;12.18;;;;;;;21.34;48.58;103248.03;5049822;28;20033;-67
2021/10/08 10:37:39;;;;;;;36.13;12.90;;;;;;;21.66;48.27;103241.13;5071111;28;20048;-67
2021/10/08 10:40:18;;;;;;;34.00;12.68;;;;;;;21.82;48.04;103243.03;5072453;28;20077;-68
2021/10/08 10:42:44;;;;;;;33.15;12.05;;;;;;;21.85;48.20;103253.56;5067910;28;20055;-67
2021/10/08 10:45:32;;;;;;;20.80;11.38;;;;;;;21.85;48.42;103251.75;5071378;28;20028;-67
2021/10/08 10:48:25;;;;;;;23.95;11.13;;;;;;;21.85;48.79;103245.56;5071857;28;20577;-68
2021/10/08 10:51:11;;;;;;;27.75;11.15;;;;;;;21.76;49.13;103246.03;5057721;28;20040;-67
2021/10/08 10:53:49;;;;;;;28.20;10.50;;;;;;;21.71;49.49;103240.06;5072903;28;20097;-68
2021/10/08 10:56:36;;;;;;;34.70;11.32;;;;;;;21.96;49.14;103243.19;5087634;28;20095;-67
2021/10/08 10:59:23;;;;;;;34.30;10.60;;;;;;;22.15;49.01;103248.44;5077882;28;20055;-67
2021/10/08 11:02:12;;;;;;;25.15;11.23;;;;;;;22.18;49.00;103242.09;5073302;28;20062;-69
2021/10/08 11:04:54;;;;;;;;;;;;;;;22.17;49.14;103248.38;5072918;28;20439;-69
2021/10/08 11:07:22;;;;;;;24.52;9.90;;;;;;;22.04;49.35;103241.00;5080561;28;20006;-69
2021/10/08 11:09:56;;;;;;;39.28;10.75;;;;;;;21.92;49.79;103235.41;5057826;28;20064;-69
2021/10/08 11:12:42;;;;;;;26.58;10.98;;;;;;;21.91;50.31;103231.91;5069180;28;20081;-69
2021/10/08 11:15:16;;;;;;;37.05;10.93;;;;;;;22.04;49.99;103232.97;5073127;28;20040;-69
2021/10/08 11:17:55;;;;;;;27.35;10.70;;;;;;;22.03;50.02;103233.94;5070116;28;20063;-69
2021/10/08 11:20:45;;;;;;;47.00;10.73;;;;;;;21.93;50.79;103227.34;5056691;28;20200;-68